American Fork, Utah
Current Conditions -  °F | °C
As of 7:59 PM on Friday 21 Nov 2014 (Local Time) from KPVU Reporting Station
Few Clouds Few Clouds  
Wind Chill:   Ceiling: Unl
Heat Index:   Visibility: 15mi
Dew Point: -6°   Wind: 0mph
Humidity: 60%   Direction: NA
Pressure: 30.02"   Gusts: NA
Location:  40.38°N, 111.79°W
Report Text: KPVU 220259Z 00000KT 15SM FEW100 01/M06 A3002
Loading
Personal Weather Stations






























Interactive Weather Map New forecast layout! Learn more

10-Day Weather Forecast

Advertisements
Track Severe Weather on mobile